Time;durP1;ratioP1;P1;durP2;ratioP2;P2;SDS_P1;SDS_P2;PMS_P1;PMS_P2;Temp;Humidity;BMP_temperature;BMP_pressure;BME280_temperature;BME280_humidity;BME280_pressure;Samples;Min_cycle;Max_cycle;Signal;HPM_P1;HPM_P2
2023/03/13 00:00:59;;;;;;;10.63;2.38;;;;;11.50;97892.00;;;;5094750;28;20048;-58
2023/03/13 00:03:26;;;;;;;11.15;2.60;;;;;11.60;97893.00;;;;5093923;28;20055;-61
2023/03/13 00:05:57;;;;;;;11.35;3.10;;;;;11.50;97891.00;;;;5095388;28;20068;-57
2023/03/13 00:08:24;;;;;;;12.23;2.45;;;;;11.50;97886.00;;;;5095406;28;20062;-62
2023/03/13 00:10:51;;;;;;;10.35;2.88;;;;;11.50;97876.00;;;;5093405;28;20044;-62
2023/03/13 00:13:17;;;;;;;12.38;3.53;;;;;11.60;97871.00;;;;5095323;28;20048;-60
2023/03/13 00:15:44;;;;;;;11.73;2.88;;;;;11.60;97874.00;;;;5095346;28;20119;-61
2023/03/13 00:18:10;;;;;;;10.23;2.47;;;;;11.60;97860.00;;;;5095486;28;20048;-62
2023/03/13 00:20:37;;;;;;;10.35;2.55;;;;;11.60;97859.00;;;;5094399;28;20048;-57
2023/03/13 00:23:04;;;;;;;8.65;1.73;;;;;11.60;97859.00;;;;5094884;28;20044;-59
2023/03/13 00:25:30;;;;;;;10.25;2.63;;;;;11.60;97856.00;;;;5094556;28;20040;-59
2023/03/13 00:27:57;;;;;;;11.15;2.30;;;;;11.60;97858.00;;;;5095042;28;20044;-58
2023/03/13 00:30:23;;;;;;;11.35;2.65;;;;;11.60;97839.00;;;;5094080;28;20055;-62
2023/03/13 00:32:50;;;;;;;6.53;2.05;;;;;11.60;97844.00;;;;5094802;28;20042;-58
2023/03/13 00:35:17;;;;;;;12.57;3.42;;;;;11.70;97831.00;;;;5094927;28;20044;-60
2023/03/13 00:37:43;;;;;;;8.48;2.17;;;;;11.70;97824.00;;;;5093478;28;20039;-62
2023/03/13 00:40:10;;;;;;;8.23;2.22;;;;;11.70;97826.00;;;;5092638;28;20048;-62
2023/03/13 00:42:37;;;;;;;6.70;2.30;;;;;11.70;97828.00;;;;5092867;28;20496;-62
2023/03/13 00:45:04;;;;;;;7.85;2.08;;;;;11.70;97821.00;;;;5093206;28;20044;-57
2023/03/13 00:47:31;;;;;;;9.48;2.25;;;;;11.80;97835.00;;;;5094347;28;20036;-58
2023/03/13 00:49:57;;;;;;;6.55;1.95;;;;;11.80;97829.00;;;;5092644;28;20434;-57
2023/03/13 00:52:26;;;;;;;7.22;2.20;;;;;11.80;97830.00;;;;5096315;28;20040;-58
2023/03/13 00:54:53;;;;;;;11.80;2.67;;;;;11.80;97822.00;;;;5096417;28;20060;-62
2023/03/13 00:57:20;;;;;;;11.70;2.35;;;;;11.90;97814.00;;;;5095736;28;20074;-61
2023/03/13 00:59:46;;;;;;;8.32;2.13;;;;;11.90;97814.00;;;;5075656;28;20502;-62
2023/03/13 01:02:13;;;;;;;11.15;2.30;;;;;11.90;97805.00;;;;5094150;28;20040;-62
2023/03/13 01:04:39;;;;;;;7.82;2.15;;;;;11.90;97806.00;;;;5094103;28;20036;-61
2023/03/13 01:07:06;;;;;;;9.48;2.13;;;;;11.90;97808.00;;;;5092748;28;20050;-62
2023/03/13 01:09:32;;;;;;;6.20;1.77;;;;;12.00;97787.00;;;;5092146;28;20599;-60
2023/03/13 01:11:59;;;;;;;4.63;1.67;;;;;11.90;97788.00;;;;5093145;28;20047;-59
2023/03/13 01:14:25;;;;;;;3.65;1.52;;;;;11.90;97783.00;;;;5094046;28;20043;-60
2023/03/13 01:16:52;;;;;;;9.52;2.83;;;;;11.90;97780.00;;;;5092721;28;20075;-61
2023/03/13 01:19:19;;;;;;;8.00;2.10;;;;;12.00;97769.00;;;;5075755;28;20051;-60
2023/03/13 01:21:46;;;;;;;7.88;1.88;;;;;12.00;97773.00;;;;5093078;28;20040;-59
2023/03/13 01:24:13;;;;;;;5.63;1.85;;;;;12.00;97774.00;;;;5075916;28;20044;-60
2023/03/13 01:26:39;;;;;;;6.75;1.48;;;;;12.00;97773.00;;;;5093251;28;20043;-60
2023/03/13 01:29:06;;;;;;;7.63;2.05;;;;;12.00;97754.00;;;;5092304;28;20040;-60
2023/03/13 01:31:34;;;;;;;10.18;2.10;;;;;12.00;97759.00;;;;5091713;28;20504;-60
2023/03/13 01:34:05;;;;;;;5.43;1.60;;;;;12.00;97757.00;;;;5076170;28;20040;-60
2023/03/13 01:36:34;;;;;;;10.07;2.40;;;;;12.00;97751.00;;;;5093385;28;20115;-60
2023/03/13 01:39:00;;;;;;;5.43;2.13;;;;;12.00;97745.00;;;;5093148;28;20165;-59
2023/03/13 01:41:29;;;;;;;8.10;3.05;;;;;12.00;97746.00;;;;5091312;28;20099;-59
2023/03/13 01:43:56;;;;;;;7.32;2.15;;;;;12.00;97743.00;;;;5093343;28;20040;-62
2023/03/13 01:46:29;;;;;;;7.32;1.98;;;;;12.00;97743.00;;;;5075842;28;20040;-60
2023/03/13 01:49:33;;;;;;;6.57;1.98;;;;;11.90;97729.00;;;;5091561;28;20128;-58
2023/03/13 01:52:13;;;;;;;8.05;2.22;;;;;11.80;97724.00;;;;5091844;28;20079;-60
2023/03/13 01:54:48;;;;;;;4.28;1.90;;;;;11.80;97725.00;;;;5092051;28;20101;-61
2023/03/13 01:57:23;;;;;;;6.15;2.08;;;;;11.80;97721.00;;;;5091823;28;20101;-61
2023/03/13 02:00:07;;;;;;;9.63;2.20;;;;;11.70;97706.00;;;;5091214;28;20096;-58
2023/03/13 02:02:44;;;;;;;7.25;2.10;;;;;11.60;97700.00;;;;5092796;28;20054;-58
2023/03/13 02:05:12;;;;;;;9.57;2.25;;;;;11.60;97706.00;;;;5091500;28;20136;-57
2023/03/13 02:07:47;;;;;;;7.57;2.03;;;;;11.50;97685.00;;;;5091436;28;20051;-57
2023/03/13 02:10:16;;;;;;;4.40;1.80;;;;;11.40;97680.00;;;;5092346;28;20040;-59
2023/03/13 02:12:43;;;;;;;9.90;2.20;;;;;11.40;97683.00;;;;5091531;28;20416;-61
2023/03/13 02:15:13;;;;;;;7.68;1.80;;;;;11.40;97682.00;;;;5092974;28;20527;-57
2023/03/13 02:17:41;;;;;;;10.05;1.95;;;;;11.40;97670.00;;;;5091619;28;20036;-58
2023/03/13 02:20:10;;;;;;;5.25;1.85;;;;;11.40;97665.00;;;;5091120;28;20450;-60
2023/03/13 02:22:45;;;;;;;4.03;1.83;;;;;11.40;97673.00;;;;5092020;28;20488;-58
2023/03/13 02:25:18;;;;;;;3.53;1.52;;;;;11.30;97667.00;;;;5092732;28;20090;-58
2023/03/13 02:27:46;;;;;;;6.47;1.80;;;;;11.30;97654.00;;;;5091922;28;20040;-57
2023/03/13 02:30:14;;;;;;;9.57;2.55;;;;;11.30;97663.00;;;;5074526;28;20139;-57
2023/03/13 02:32:43;;;;;;;5.30;1.80;;;;;11.30;97645.00;;;;5093499;28;20044;-58
2023/03/13 02:35:13;;;;;;;6.68;1.88;;;;;11.30;97654.00;;;;5093350;28;20528;-58
2023/03/13 02:37:43;;;;;;;4.00;1.63;;;;;11.20;97637.00;;;;5092195;28;20044;-58
2023/03/13 02:40:18;;;;;;;6.30;2.10;;;;;11.20;97632.00;;;;5092027;28;20059;-58
2023/03/13 02:42:47;;;;;;;5.25;2.22;;;;;11.20;97624.00;;;;5094081;28;20035;-58
2023/03/13 02:45:16;;;;;;;2.50;1.27;;;;;11.20;97635.00;;;;5092954;28;20419;-57
2023/03/13 02:47:43;;;;;;;4.05;1.33;;;;;11.20;97620.00;;;;5092825;28;20066;-59
2023/03/13 02:50:12;;;;;;;4.38;1.42;;;;;11.10;97620.00;;;;5092175;28;20125;-61
2023/03/13 02:52:45;;;;;;;4.55;1.30;;;;;11.10;97605.00;;;;5093247;28;20051;-58
2023/03/13 02:55:41;;;;;;;4.63;1.52;;;;;11.10;97599.00;;;;5091706;28;20135;-62
2023/03/13 02:58:10;;;;;;;3.20;1.30;;;;;11.00;97600.00;;;;5091565;28;20462;-62
2023/03/13 03:00:36;;;;;;;3.22;1.40;;;;;11.00;97613.00;;;;5092028;28;20058;-61
2023/03/13 03:03:03;;;;;;;4.28;1.70;;;;;11.00;97602.00;;;;5092816;28;20043;-62
2023/03/13 03:05:30;;;;;;;3.83;2.03;;;;;11.00;97599.00;;;;5092434;28;20048;-62
2023/03/13 03:07:57;;;;;;;6.85;1.75;;;;;11.00;97603.00;;;;5091285;28;20131;-61
2023/03/13 03:10:24;;;;;;;3.13;1.30;;;;;11.00;97595.00;;;;5090820;28;20101;-62
2023/03/13 03:12:51;;;;;;;2.50;1.10;;;;;11.00;97605.00;;;;5091448;28;20079;-62
2023/03/13 03:15:17;;;;;;;3.20;1.60;;;;;11.00;97599.00;;;;5091904;28;20040;-62
2023/03/13 03:17:46;;;;;;;4.55;1.52;;;;;11.00;97599.00;;;;5092091;28;20046;-62
2023/03/13 03:20:13;;;;;;;1.75;1.15;;;;;11.00;97588.00;;;;5091718;28;20040;-60
2023/03/13 03:22:41;;;;;;;3.90;1.27;;;;;11.00;97583.00;;;;5091432;28;20106;-62
2023/03/13 03:25:08;;;;;;;3.88;1.60;;;;;11.00;97582.00;;;;5090852;28;20051;-62
2023/03/13 03:27:35;;;;;;;3.67;1.98;;;;;11.00;97581.00;;;;5090640;28;20114;-62
2023/03/13 03:30:06;;;;;;;2.25;1.30;;;;;11.00;97572.00;;;;5090158;28;20051;-62
2023/03/13 03:32:34;;;;;;;3.78;1.27;;;;;11.10;97572.00;;;;5091086;28;20124;-62
2023/03/13 03:35:01;;;;;;;2.28;1.10;;;;;11.10;97570.00;;;;5095492;28;20051;-62
2023/03/13 03:37:28;;;;;;;2.17;1.10;;;;;11.10;97547.00;;;;5094694;28;20127;-62
2023/03/13 03:39:55;;;;;;;4.00;1.20;;;;;11.20;97551.00;;;;5093927;28;20123;-63
2023/03/13 03:42:22;;;;;;;2.10;0.95;;;;;11.20;97566.00;;;;5094384;28;20098;-62
2023/03/13 03:44:48;;;;;;;1.85;1.17;;;;;11.20;97567.00;;;;5077843;28;20411;-62
2023/03/13 03:47:16;;;;;;;2.40;1.10;;;;;11.20;97567.00;;;;5094278;28;20046;-62
2023/03/13 03:49:45;;;;;;;1.98;1.38;;;;;11.20;97567.00;;;;5093848;28;20048;-62
2023/03/13 03:52:13;;;;;;;4.22;1.75;;;;;11.20;97566.00;;;;5094147;28;20036;-63
2023/03/13 03:54:41;;;;;;;3.13;1.50;;;;;11.30;97570.00;;;;5094084;28;20044;-62
2023/03/13 03:57:08;;;;;;;3.75;1.50;;;;;11.20;97573.00;;;;5095355;28;20399;-61
2023/03/13 03:59:36;;;;;;;3.42;1.70;;;;;11.20;97572.00;;;;5093635;28;20044;-61
2023/03/13 04:02:05;;;;;;;3.63;1.83;;;;;11.20;97551.00;;;;5094017;28;20394;-62
2023/03/13 04:04:33;;;;;;;3.58;2.10;;;;;11.30;97554.00;;;;5094029;28;20105;-62
2023/03/13 04:07:04;;;;;;;4.13;1.98;;;;;11.30;97556.00;;;;5093779;28;20047;-61
2023/03/13 04:09:31;;;;;;;5.88;1.77;;;;;11.30;97553.00;;;;5093488;28;20058;-61
2023/03/13 04:12:00;;;;;;;2.65;1.58;;;;;11.30;97546.00;;;;5093797;28;20058;-60
2023/03/13 04:14:28;;;;;;;2.33;1.77;;;;;11.40;97537.00;;;;5093849;28;20044;-60
2023/03/13 04:16:57;;;;;;;4.15;2.15;;;;;11.40;97538.00;;;;5093838;28;20051;-60
2023/03/13 04:19:23;;;;;;;5.10;2.05;;;;;11.40;97524.00;;;;5093502;28;20040;-59
2023/03/13 04:21:50;;;;;;;3.83;1.80;;;;;11.40;97531.00;;;;5093854;28;20188;-60
2023/03/13 04:24:18;;;;;;;3.22;1.67;;;;;11.40;97528.00;;;;5093639;28;20512;-59
2023/03/13 04:26:44;;;;;;;3.35;2.10;;;;;11.40;97533.00;;;;5094631;28;20046;-61
2023/03/13 04:29:11;;;;;;;3.78;2.15;;;;;11.50;97520.00;;;;5093545;28;20505;-61
2023/03/13 04:31:48;;;;;;;5.60;2.03;;;;;11.50;97536.00;;;;5092955;28;20138;-61
2023/03/13 04:34:37;;;;;;;4.55;2.00;;;;;11.50;97530.00;;;;5091692;28;20415;-60
2023/03/13 04:37:16;;;;;;;2.85;2.03;;;;;11.50;97526.00;;;;5094586;28;20032;-61
2023/03/13 04:39:57;;;;;;;5.95;2.25;;;;;11.60;97528.00;;;;5092822;28;20047;-61
2023/03/13 04:42:56;;;;;;;4.22;2.08;;;;;11.60;97534.00;;;;5071212;28;20135;-58
2023/03/13 04:45:41;;;;;;;2.97;1.85;;;;;11.60;97549.00;;;;5093789;28;20055;-57
2023/03/13 04:48:38;;;;;;;5.43;2.00;;;;;11.60;97544.00;;;;5093138;28;20054;-61
2023/03/13 04:51:17;;;;;;;3.53;1.88;;;;;11.60;97557.00;;;;5092936;28;20397;-61
2023/03/13 04:54:09;;;;;;;4.35;2.13;;;;;11.60;97552.00;;;;5093718;28;20048;-62
2023/03/13 04:56:45;;;;;;;4.90;1.70;;;;;11.70;97565.00;;;;5094443;28;20047;-60
2023/03/13 04:59:28;;;;;;;5.28;2.10;;;;;11.70;97559.00;;;;5092666;28;20058;-59
2023/03/13 05:02:11;;;;;;;3.22;2.00;;;;;11.70;97555.00;;;;5094527;28;20106;-59
2023/03/13 05:04:56;;;;;;;3.70;2.20;;;;;11.70;97546.00;;;;5094582;28;20059;-60
2023/03/13 05:07:22;;;;;;;3.00;1.80;;;;;11.70;97549.00;;;;5094134;28;20157;-61
2023/03/13 05:10:08;;;;;;;2.83;1.88;;;;;11.60;97550.00;;;;5093922;28;20075;-60
2023/03/13 05:12:54;;;;;;;3.75;1.85;;;;;11.60;97541.00;;;;5093895;28;20083;-61
2023/03/13 05:15:44;;;;;;;3.65;1.70;;;;;11.60;97535.00;;;;5092683;28;20044;-61
2023/03/13 05:18:28;;;;;;;4.55;1.95;;;;;11.60;97536.00;;;;5092641;28;20040;-61
2023/03/13 05:21:11;;;;;;;2.63;1.67;;;;;11.60;97537.00;;;;5093332;28;20093;-61
2023/03/13 05:24:04;;;;;;;3.22;1.40;;;;;11.60;97537.00;;;;5092506;28;20101;-60
2023/03/13 05:26:38;;;;;;;1.60;1.40;;;;;11.60;97531.00;;;;5093861;28;20400;-60
2023/03/13 05:29:30;;;;;;;3.53;1.35;;;;;11.60;97527.00;;;;5091555;28;20129;-59
2023/03/13 05:32:15;;;;;;;2.45;1.38;;;;;11.60;97534.00;;;;5093897;28;20055;-61
2023/03/13 05:34:53;;;;;;;1.98;1.13;;;;;11.60;97528.00;;;;5076896;28;20101;-61
2023/03/13 05:37:36;;;;;;;1.10;1.00;;;;;11.70;97531.00;;;;5092325;28;20135;-59
2023/03/13 05:40:25;;;;;;;2.05;1.20;;;;;11.70;97528.00;;;;5093039;28;20400;-60
2023/03/13 05:43:17;;;;;;;4.57;1.30;;;;;11.70;97540.00;;;;5092027;28;20040;-61
2023/03/13 05:46:02;;;;;;;1.52;1.15;;;;;11.70;97550.00;;;;5093694;28;20070;-61
2023/03/13 05:48:47;;;;;;;1.83;1.42;;;;;11.80;97549.00;;;;5092100;28;20048;-62
2023/03/13 05:51:34;;;;;;;2.75;1.33;;;;;11.80;97530.00;;;;5091913;28;20047;-61
2023/03/13 05:54:29;;;;;;;4.50;1.77;;;;;11.80;97539.00;;;;5084233;28;20052;-60
2023/03/13 05:57:31;;;;;;;1.25;1.00;;;;;11.80;97532.00;;;;5050955;28;20056;-61
2023/03/13 06:00:06;;;;;;;1.95;1.00;;;;;11.90;97531.00;;;;5084888;28;20052;-62
2023/03/13 06:02:39;;;;;;;1.90;1.10;;;;;11.90;97535.00;;;;5096956;28;20044;-62
2023/03/13 06:05:08;;;;;;;1.48;1.20;;;;;11.90;97534.00;;;;5095380;28;20165;-62
2023/03/13 06:07:36;;;;;;;1.88;1.33;;;;;11.90;97538.00;;;;5094339;28;20064;-62
2023/03/13 06:10:04;;;;;;;2.63;1.70;;;;;12.00;97546.00;;;;5093865;28;20501;-59
2023/03/13 06:12:30;;;;;;;1.38;1.27;;;;;12.00;97551.00;;;;5095406;28;20097;-61
2023/03/13 06:14:58;;;;;;;1.52;1.20;;;;;11.90;97542.00;;;;5096687;28;20036;-61
2023/03/13 06:17:38;;;;;;;1.60;1.27;;;;;11.90;97537.00;;;;5094957;28;20044;-61
2023/03/13 06:20:05;;;;;;;1.50;1.25;;;;;12.00;97535.00;;;;5096065;28;20101;-61
2023/03/13 06:22:32;;;;;;;1.92;1.42;;;;;12.00;97531.00;;;;5095223;28;20040;-61
2023/03/13 06:24:58;;;;;;;1.55;1.17;;;;;12.00;97539.00;;;;5096884;28;20062;-61
2023/03/13 06:27:25;;;;;;;1.10;1.00;;;;;12.10;97535.00;;;;5096741;28;20044;-61
2023/03/13 06:29:51;;;;;;;1.20;1.10;;;;;12.10;97541.00;;;;5094558;28;20047;-60
2023/03/13 06:32:18;;;;;;;1.48;1.25;;;;;12.10;97539.00;;;;5096077;28;20044;-62
2023/03/13 06:34:44;;;;;;;2.13;1.45;;;;;12.10;97531.00;;;;5095532;28;20047;-61
2023/03/13 06:37:11;;;;;;;1.90;1.58;;;;;12.10;97526.00;;;;5095293;28;20044;-62
2023/03/13 06:39:40;;;;;;;1.35;1.25;;;;;12.10;97518.00;;;;5096949;28;20051;-61
2023/03/13 06:42:07;;;;;;;1.67;1.58;;;;;12.10;97509.00;;;;5096313;28;20052;-61
2023/03/13 06:44:33;;;;;;;2.55;1.40;;;;;12.20;97518.00;;;;5096966;28;20040;-61
2023/03/13 06:47:00;;;;;;;2.90;1.80;;;;;12.20;97501.00;;;;5097195;28;20130;-61
2023/03/13 06:49:27;;;;;;;3.42;2.40;;;;;12.30;97511.00;;;;5096416;28;20058;-61
2023/03/13 06:51:56;;;;;;;1.98;1.50;;;;;12.40;97502.00;;;;5097656;28;20488;-61
2023/03/13 06:54:23;;;;;;;1.85;1.73;;;;;12.40;97511.00;;;;5093704;28;20051;-61
2023/03/13 06:56:50;;;;;;;2.58;1.67;;;;;12.40;97511.00;;;;5092456;28;20044;-60
2023/03/13 06:59:16;;;;;;;2.17;1.60;;;;;12.40;97502.00;;;;5092317;28;20036;-60
2023/03/13 07:01:43;;;;;;;1.95;1.60;;;;;12.50;97509.00;;;;5091771;28;20041;-62
2023/03/13 07:04:11;;;;;;;2.90;2.05;;;;;12.50;97519.00;;;;5092221;28;20040;-61
2023/03/13 07:06:38;;;;;;;2.30;1.55;;;;;12.50;97521.00;;;;5092324;28;20044;-60
2023/03/13 07:09:05;;;;;;;2.83;1.40;;;;;12.50;97511.00;;;;5076083;28;20044;-59
2023/03/13 07:11:31;;;;;;;4.88;1.60;;;;;12.50;97519.00;;;;5095838;28;20105;-60
2023/03/13 07:14:00;;;;;;;2.15;1.27;;;;;12.60;97524.00;;;;5096435;28;20044;-61
2023/03/13 07:16:42;;;;;;;4.18;1.70;;;;;12.60;97524.00;;;;5096365;28;20560;-60
2023/03/13 07:19:08;;;;;;;1.75;1.48;;;;;12.60;97521.00;;;;5096170;28;20040;-60
2023/03/13 07:21:35;;;;;;;4.88;2.30;;;;;12.60;97520.00;;;;5095706;28;20078;-61
2023/03/13 07:24:02;;;;;;;3.38;1.83;;;;;12.60;97524.00;;;;5096276;28;20052;-60
2023/03/13 07:26:29;;;;;;;2.65;2.10;;;;;12.60;97532.00;;;;5096118;28;20073;-60
2023/03/13 07:28:56;;;;;;;3.17;1.58;;;;;12.60;97529.00;;;;5095932;28;20044;-60
2023/03/13 07:31:23;;;;;;;3.05;1.80;;;;;12.60;97537.00;;;;5095174;28;20047;-60
2023/03/13 07:33:55;;;;;;;3.75;1.90;;;;;12.70;97512.00;;;;5094702;28;20040;-58
2023/03/13 07:36:22;;;;;;;2.45;1.58;;;;;12.70;97537.00;;;;5095924;28;20044;-59
2023/03/13 07:38:49;;;;;;;2.92;1.63;;;;;12.70;97527.00;;;;5095943;28;20041;-61
2023/03/13 07:41:17;;;;;;;3.45;2.08;;;;;12.70;97535.00;;;;5093946;28;20043;-60
2023/03/13 07:43:44;;;;;;;2.13;1.75;;;;;12.70;97528.00;;;;5095717;28;20067;-61
2023/03/13 07:46:14;;;;;;;4.47;2.60;;;;;12.70;97510.00;;;;5095808;28;20044;-61
2023/03/13 07:48:41;;;;;;;2.13;1.92;;;;;12.60;97517.00;;;;5095712;28;20044;-61
2023/03/13 07:51:17;;;;;;;3.08;2.10;;;;;12.60;97530.00;;;;5093712;28;20056;-60
2023/03/13 07:53:49;;;;;;;4.43;2.20;;;;;12.60;97522.00;;;;5095596;28;20066;-61
2023/03/13 07:56:21;;;;;;;2.00;1.90;;;;;12.60;97524.00;;;;5094169;28;20048;-60
2023/03/13 07:58:49;;;;;;;4.10;2.33;;;;;12.60;97522.00;;;;5094234;28;20101;-60
2023/03/13 08:01:23;;;;;;;3.75;2.22;;;;;12.70;97515.00;;;;5094944;28;20040;-60
2023/03/13 08:03:54;;;;;;;3.00;2.35;;;;;12.70;97511.00;;;;5095356;28;20075;-61
2023/03/13 08:06:23;;;;;;;4.28;2.25;;;;;12.70;97517.00;;;;5095217;28;20130;-60
2023/03/13 08:08:51;;;;;;;4.93;2.53;;;;;12.60;97518.00;;;;5095190;28;20059;-59
2023/03/13 08:11:19;;;;;;;4.05;2.55;;;;;12.60;97513.00;;;;5094327;28;20040;-60
2023/03/13 08:13:48;;;;;;;4.38;2.58;;;;;12.60;97512.00;;;;5094076;28;20055;-59
2023/03/13 08:16:20;;;;;;;3.72;2.45;;;;;12.70;97510.00;;;;5095498;28;20408;-58
2023/03/13 08:18:48;;;;;;;4.25;2.33;;;;;12.70;97510.00;;;;5095102;28;20060;-59
2023/03/13 08:21:19;;;;;;;4.72;2.53;;;;;12.70;97501.00;;;;5094252;28;20040;-59
2023/03/13 08:23:46;;;;;;;3.38;1.98;;;;;12.80;97504.00;;;;5095052;28;20055;-61
2023/03/13 08:26:19;;;;;;;2.92;2.38;;;;;12.90;97503.00;;;;5094985;28;20514;-60
2023/03/13 08:28:47;;;;;;;2.20;2.00;;;;;13.00;97485.00;;;;5094986;28;20040;-60
2023/03/13 08:31:19;;;;;;;5.22;2.33;;;;;13.10;97480.00;;;;5094626;28;20044;-60
2023/03/13 08:33:46;;;;;;;6.00;2.25;;;;;13.30;97474.00;;;;5093493;28;20058;-59
2023/03/13 08:36:16;;;;;;;2.85;2.28;;;;;13.40;97495.00;;;;5094769;28;20040;-60
2023/03/13 08:38:44;;;;;;;3.38;2.38;;;;;13.60;97493.00;;;;5094713;28;20043;-59
2023/03/13 08:41:16;;;;;;;3.45;2.20;;;;;13.60;97494.00;;;;5094102;28;20048;-60
2023/03/13 08:43:43;;;;;;;4.07;2.25;;;;;13.70;97490.00;;;;5094593;28;20500;-60
2023/03/13 08:46:10;;;;;;;6.57;2.00;;;;;13.70;97509.00;;;;5094489;28;20040;-60
2023/03/13 08:48:36;;;;;;;4.70;2.20;;;;;13.80;97491.00;;;;5094406;28;20065;-61
2023/03/13 08:51:10;;;;;;;4.28;2.05;;;;;13.80;97500.00;;;;5093154;28;20537;-61
2023/03/13 08:53:39;;;;;;;2.30;2.10;;;;;13.80;97499.00;;;;5097234;28;20545;-61
2023/03/13 08:56:08;;;;;;;3.95;2.30;;;;;13.80;97503.00;;;;5095439;28;20127;-60
2023/03/13 08:58:35;;;;;;;4.97;2.50;;;;;13.80;97494.00;;;;5094428;28;20508;-61
2023/03/13 09:01:07;;;;;;;3.72;2.13;;;;;13.80;97519.00;;;;5093650;28;20515;-60
2023/03/13 09:03:34;;;;;;;2.45;1.88;;;;;13.80;97499.00;;;;5094222;28;20047;-60
2023/03/13 09:06:02;;;;;;;3.15;2.05;;;;;13.90;97495.00;;;;5094337;28;20512;-60
2023/03/13 09:08:29;;;;;;;5.40;2.45;;;;;14.00;97503.00;;;;5094208;28;20069;-60
2023/03/13 09:10:57;;;;;;;3.95;1.95;;;;;14.10;97486.00;;;;5093592;28;20051;-57
2023/03/13 09:13:25;;;;;;;4.35;2.15;;;;;14.20;97494.00;;;;5092631;28;20386;-58
2023/03/13 09:16:01;;;;;;;5.32;1.88;;;;;14.20;97485.00;;;;5094366;28;20511;-58
2023/03/13 09:18:28;;;;;;;6.10;1.95;;;;;14.20;97496.00;;;;5093948;28;20525;-60
2023/03/13 09:20:55;;;;;;;3.45;2.00;;;;;14.20;97487.00;;;;5093207;28;20129;-58
2023/03/13 09:23:22;;;;;;;3.47;2.05;;;;;14.10;97503.00;;;;5094071;28;20497;-60
2023/03/13 09:25:52;;;;;;;3.88;2.20;;;;;14.10;97499.00;;;;5093680;28;20466;-58
2023/03/13 09:28:19;;;;;;;2.95;2.03;;;;;14.10;97491.00;;;;5093570;28;20047;-59
2023/03/13 09:30:45;;;;;;;3.75;2.33;;;;;14.00;97485.00;;;;5092915;28;20059;-57
2023/03/13 09:33:12;;;;;;;3.28;2.20;;;;;14.00;97484.00;;;;5093877;28;20044;-61
2023/03/13 09:35:38;;;;;;;4.15;2.20;;;;;14.00;97478.00;;;;5093513;28;20051;-59
2023/03/13 09:38:05;;;;;;;4.45;2.33;;;;;14.00;97457.00;;;;5093708;28;20043;-60
2023/03/13 09:40:39;;;;;;;3.88;2.20;;;;;14.20;97461.00;;;;5092763;28;20109;-58
2023/03/13 09:43:24;;;;;;;3.80;2.50;;;;;14.40;97462.00;;;;5093635;28;20044;-58
2023/03/13 09:45:56;;;;;;;5.13;2.70;;;;;14.30;97449.00;;;;5093398;28;20036;-60
2023/03/13 09:48:37;;;;;;;5.63;2.85;;;;;14.30;97453.00;;;;5093436;28;20115;-60
2023/03/13 09:51:15;;;;;;;3.13;2.22;;;;;14.30;97446.00;;;;5092993;28;20055;-60
2023/03/13 09:53:52;;;;;;;3.80;1.90;;;;;14.30;97424.00;;;;5093479;28;20036;-59
2023/03/13 09:56:23;;;;;;;3.45;2.00;;;;;14.30;97436.00;;;;5093349;28;20449;-60
2023/03/13 09:58:57;;;;;;;3.28;1.90;;;;;14.30;97425.00;;;;5093173;28;20085;-60
2023/03/13 10:01:30;;;;;;;3.92;2.00;;;;;14.30;97423.00;;;;5092462;28;20052;-60
2023/03/13 10:04:12;;;;;;;3.13;2.20;;;;;14.40;97409.00;;;;5093114;28;20101;-60
2023/03/13 10:06:42;;;;;;;2.10;1.80;;;;;14.60;97401.00;;;;5092974;28;20139;-60
2023/03/13 10:09:22;;;;;;;3.88;1.95;;;;;14.90;97415.00;;;;5092921;28;20033;-60
2023/03/13 10:12:19;;;;;;;2.55;1.65;;;;;15.10;97408.00;;;;5091013;28;20424;-60
2023/03/13 10:14:52;;;;;;;3.15;1.60;;;;;15.10;97402.00;;;;5091111;28;20051;-60
2023/03/13 10:17:21;;;;;;;2.40;1.60;;;;;15.10;97410.00;;;;5092846;28;20048;-59
2023/03/13 10:19:57;;;;;;;2.08;1.70;;;;;15.10;97396.00;;;;5092134;28;20058;-60
2023/03/13 10:22:28;;;;;;;2.67;1.50;;;;;15.10;97395.00;;;;5092793;28;20050;-60
2023/03/13 10:24:59;;;;;;;4.32;1.90;;;;;15.20;97376.00;;;;5092645;28;20056;-60
2023/03/13 10:27:25;;;;;;;2.47;1.50;;;;;15.30;97386.00;;;;5092519;28;20044;-60
2023/03/13 10:29:52;;;;;;;3.85;1.83;;;;;15.60;97382.00;;;;5092011;28;20032;-60
2023/03/13 10:32:19;;;;;;;2.63;1.60;;;;;15.80;97379.00;;;;5092579;28;20500;-60
2023/03/13 10:34:56;;;;;;;2.28;1.40;;;;;16.10;97366.00;;;;5091234;28;20063;-60
2023/03/13 10:37:41;;;;;;;5.03;1.52;;;;;16.40;97366.00;;;;5091261;28;20052;-60
2023/03/13 10:40:18;;;;;;;2.58;1.50;;;;;16.60;97365.00;;;;5092673;28;20451;-60
2023/03/13 10:42:45;;;;;;;3.83;1.52;;;;;16.70;97361.00;;;;5092005;28;20048;-60
2023/03/13 10:45:17;;;;;;;2.38;1.83;;;;;17.10;97345.00;;;;5092105;28;20052;-60
2023/03/13 10:47:44;;;;;;;3.35;1.52;;;;;17.20;97358.00;;;;5074363;28;20076;-60
2023/03/13 10:50:20;;;;;;;3.38;2.10;;;;;17.30;97345.00;;;;5091825;28;20074;-60
2023/03/13 10:52:48;;;;;;;3.33;1.70;;;;;17.70;97338.00;;;;5092576;28;20044;-60
2023/03/13 10:55:21;;;;;;;5.32;2.80;;;;;17.80;97336.00;;;;5092893;28;20046;-58
2023/03/13 10:58:02;;;;;;;2.90;1.30;;;;;18.00;97344.00;;;;5092442;28;20093;-57
2023/03/13 11:00:32;;;;;;;2.17;1.58;;;;;18.10;97332.00;;;;5091770;28;20036;-57
2023/03/13 11:03:01;;;;;;;3.20;1.20;;;;;18.30;97335.00;;;;5092682;28;20048;-58
2023/03/13 11:05:43;;;;;;;3.08;1.50;;;;;18.40;97326.00;;;;5092529;28;20044;-58
2023/03/13 11:08:25;;;;;;;2.47;1.20;;;;;18.40;97312.00;;;;5092320;28;20051;-58
2023/03/13 11:11:00;;;;;;;2.67;1.40;;;;;18.40;97312.00;;;;5091726;28;20044;-58
2023/03/13 11:13:41;;;;;;;1.50;1.40;;;;;18.60;97314.00;;;;5092419;28;20036;-61
2023/03/13 11:16:23;;;;;;;3.67;2.47;;;;;18.60;97301.00;;;;5092203;28;20048;-60
2023/03/13 11:19:16;;;;;;;2.55;1.73;;;;;18.70;97300.00;;;;5092225;28;20040;-59
2023/03/13 11:22:01;;;;;;;1.70;1.42;;;;;18.70;97299.00;;;;5087999;28;20060;-58
2023/03/13 11:24:46;;;;;;;4.05;1.65;;;;;18.80;97288.00;;;;5091981;28;20044;-57
2023/03/13 11:27:35;;;;;;;1.70;1.20;;;;;18.80;97287.00;;;;5090757;28;20093;-61
2023/03/13 11:30:06;;;;;;;3.17;1.27;;;;;18.90;97300.00;;;;5091436;28;20055;-60
2023/03/13 11:32:47;;;;;;;3.17;1.45;;;;;18.90;97281.00;;;;5092161;28;20458;-60
2023/03/13 11:35:39;;;;;;;1.98;1.58;;;;;19.00;97287.00;;;;5092203;28;20118;-60
2023/03/13 11:38:21;;;;;;;3.05;1.73;;;;;19.00;97284.00;;;;5092342;28;20054;-60
2023/03/13 11:41:11;;;;;;;3.22;1.45;;;;;18.90;97274.00;;;;5091318;28;20040;-60
2023/03/13 11:43:56;;;;;;;2.78;1.60;;;;;18.80;97267.00;;;;5092524;28;20040;-61
2023/03/13 11:46:39;;;;;;;2.10;1.70;;;;;18.80;97258.00;;;;5091965;28;20052;-60
2023/03/13 11:49:28;;;;;;;3.92;1.40;;;;;18.80;97260.00;;;;5091679;28;20040;-61
2023/03/13 11:52:03;;;;;;;2.65;1.40;;;;;18.80;97249.00;;;;5091337;28;20055;-60
2023/03/13 11:54:33;;;;;;;3.17;1.60;;;;;18.80;97242.00;;;;5092738;28;20048;-62
2023/03/13 11:57:29;;;;;;;2.78;1.85;;;;;18.80;97239.00;;;;5095527;28;20058;-59
2023/03/13 12:00:17;;;;;;;1.35;1.23;;;;;18.90;97234.00;;;;5094871;28;20407;-60
2023/03/13 12:03:12;;;;;;;2.08;1.50;;;;;19.00;97215.00;;;;5095394;28;20044;-61
2023/03/13 12:05:54;;;;;;;2.85;1.20;;;;;19.10;97218.00;;;;5095253;28;20047;-61
2023/03/13 12:08:37;;;;;;;1.77;0.90;;;;;19.20;97214.00;;;;5095217;28;20048;-61
2023/03/13 12:11:15;;;;;;;2.33;1.25;;;;;19.20;97214.00;;;;5095041;28;20094;-61
2023/03/13 12:14:12;;;;;;;2.58;1.55;;;;;19.30;97186.00;;;;5095465;28;20044;-61
2023/03/13 12:16:47;;;;;;;1.77;0.90;;;;;19.40;97193.00;;;;5085904;28;20064;-61
2023/03/13 12:19:29;;;;;;;3.75;1.60;;;;;19.40;97184.00;;;;5095305;28;20040;-60
2023/03/13 12:22:02;;;;;;;2.53;1.38;;;;;19.40;97190.00;;;;5094757;28;20040;-60
2023/03/13 12:24:38;;;;;;;2.10;1.13;;;;;19.40;97187.00;;;;5095215;28;20409;-61
2023/03/13 12:27:14;;;;;;;2.92;1.40;;;;;19.50;97196.00;;;;5094738;28;20085;-61
2023/03/13 12:29:57;;;;;;;1.88;0.90;;;;;19.40;97173.00;;;;5094482;28;20037;-61
2023/03/13 12:32:54;;;;;;;1.95;1.17;;;;;19.40;97179.00;;;;5094943;28;20051;-60
2023/03/13 12:35:32;;;;;;;1.63;0.90;;;;;19.50;97179.00;;;;5094845;28;20504;-61
2023/03/13 12:38:18;;;;;;;2.95;1.20;;;;;19.60;97169.00;;;;5094898;28;20048;-61
2023/03/13 12:41:00;;;;;;;2.78;1.33;;;;;19.70;97173.00;;;;5093162;28;20047;-61
2023/03/13 12:43:35;;;;;;;3.42;1.17;;;;;19.80;97165.00;;;;5094674;28;20051;-59